createdAt,value
2023-03-19T00:00:34.663Z,8.45
2023-03-19T00:03:01.431Z,8.42
2023-03-19T00:05:28.076Z,8.43
2023-03-19T00:07:54.711Z,8.43
2023-03-19T00:10:21.480Z,8.34
2023-03-19T00:12:48.097Z,8.31
2023-03-19T00:15:15.568Z,8.33
2023-03-19T00:17:43.167Z,8.29
2023-03-19T00:20:11.949Z,8.22
2023-03-19T00:22:39.712Z,8.16
2023-03-19T00:25:08.144Z,8.13
2023-03-19T00:27:34.708Z,8.14
2023-03-19T00:30:02.640Z,8.15
2023-03-19T00:32:30.174Z,8.11
2023-03-19T00:34:56.854Z,8.06
2023-03-19T00:37:23.492Z,8.06
2023-03-19T00:39:52.096Z,8.08
2023-03-19T00:42:18.612Z,8.08
2023-03-19T00:44:45.173Z,8.08
2023-03-19T00:47:12.470Z,8.10
2023-03-19T00:49:39.006Z,8.22
2023-03-19T00:52:05.568Z,8.19
2023-03-19T00:54:32.505Z,8.30
2023-03-19T00:56:59.114Z,8.23
2023-03-19T00:59:26.333Z,8.26
2023-03-19T01:01:52.891Z,8.21
2023-03-19T01:04:19.586Z,8.26
2023-03-19T01:06:46.283Z,8.29
2023-03-19T01:09:12.886Z,8.21
2023-03-19T01:11:39.423Z,8.18
2023-03-19T01:14:06.461Z,8.24
2023-03-19T01:16:34.765Z,8.26
2023-03-19T01:19:02.339Z,8.27
2023-03-19T01:21:31.214Z,8.28
2023-03-19T01:23:58.726Z,8.33
2023-03-19T01:26:26.141Z,8.30
2023-03-19T01:28:53.061Z,8.28
2023-03-19T01:31:19.917Z,8.30
2023-03-19T01:33:46.631Z,8.33
2023-03-19T01:36:13.793Z,8.38
2023-03-19T01:38:40.628Z,8.35
2023-03-19T01:41:10.135Z,8.38
2023-03-19T01:43:36.754Z,8.48
2023-03-19T01:46:34.732Z,8.48
2023-03-19T01:49:03.723Z,8.48
2023-03-19T01:51:34.795Z,8.47
2023-03-19T01:54:05.579Z,8.54
2023-03-19T01:56:34.877Z,8.55
2023-03-19T01:59:26.127Z,8.51
2023-03-19T02:02:01.006Z,8.46
2023-03-19T02:04:27.835Z,8.45
2023-03-19T02:06:59.444Z,8.35
2023-03-19T02:09:27.284Z,8.39
2023-03-19T02:11:54.874Z,8.43
2023-03-19T02:14:21.794Z,8.39
2023-03-19T02:16:48.757Z,8.38
2023-03-19T02:19:28.149Z,8.43
2023-03-19T02:21:56.173Z,8.42
2023-03-19T02:24:51.106Z,8.41
2023-03-19T02:27:17.944Z,8.43
2023-03-19T02:29:44.496Z,8.39
2023-03-19T02:32:11.341Z,8.38
2023-03-19T02:34:41.494Z,8.38
2023-03-19T02:37:11.731Z,8.34
2023-03-19T02:39:50.075Z,8.34
2023-03-19T02:42:18.571Z,8.32
2023-03-19T02:44:46.235Z,8.32
2023-03-19T02:47:12.825Z,8.23
2023-03-19T02:49:39.340Z,8.24
2023-03-19T02:52:05.951Z,8.21
2023-03-19T02:54:32.572Z,8.22
2023-03-19T02:56:59.269Z,8.24
2023-03-19T02:59:26.210Z,8.19
2023-03-19T03:01:52.961Z,8.18
2023-03-19T03:04:19.547Z,8.08
2023-03-19T03:06:46.205Z,8.12
2023-03-19T03:09:13.485Z,8.12
2023-03-19T03:11:41.775Z,8.12
2023-03-19T03:14:08.726Z,8.19
2023-03-19T03:16:35.412Z,8.26
2023-03-19T03:19:02.565Z,8.24
2023-03-19T03:21:29.625Z,8.22
2023-03-19T03:23:56.429Z,8.23
2023-03-19T03:26:23.189Z,8.24
2023-03-19T03:28:49.752Z,8.29
2023-03-19T03:31:16.959Z,8.30
2023-03-19T03:33:43.719Z,8.24
2023-03-19T03:36:10.314Z,8.31
2023-03-19T03:38:36.830Z,8.38
2023-03-19T03:41:03.368Z,8.38
2023-03-19T03:43:32.935Z,8.36
2023-03-19T03:45:59.575Z,8.35
2023-03-19T03:48:26.122Z,8.37
2023-03-19T03:50:52.776Z,8.37
2023-03-19T03:53:19.347Z,8.33
2023-03-19T03:55:45.905Z,8.38
2023-03-19T03:58:15.412Z,8.37
2023-03-19T04:00:42.099Z,8.34
2023-03-19T04:03:08.915Z,8.30
2023-03-19T04:05:36.652Z,8.32
2023-03-19T04:08:03.866Z,8.36
2023-03-19T04:10:31.340Z,8.33
2023-03-19T04:12:58.096Z,8.38
2023-03-19T04:15:28.934Z,8.37
2023-03-19T04:17:55.657Z,8.40
2023-03-19T04:20:23.672Z,8.41
2023-03-19T04:22:50.333Z,8.36
2023-03-19T04:25:17.143Z,8.32
2023-03-19T04:27:43.830Z,8.30
2023-03-19T04:30:11.589Z,8.24
2023-03-19T04:32:38.452Z,8.21
2023-03-19T04:35:05.775Z,8.32
2023-03-19T04:37:35.029Z,8.26
2023-03-19T04:40:01.745Z,8.25
2023-03-19T04:42:31.217Z,8.21
2023-03-19T04:44:57.787Z,8.17
2023-03-19T04:47:24.344Z,8.13
2023-03-19T04:49:51.477Z,8.05
2023-03-19T04:52:18.027Z,8.05
2023-03-19T04:54:44.562Z,7.98
2023-03-19T04:57:11.465Z,7.90
2023-03-19T04:59:38.090Z,7.89
2023-03-19T05:02:05.082Z,7.83
2023-03-19T05:04:31.679Z,7.82
2023-03-19T05:06:58.362Z,7.86
2023-03-19T05:09:24.958Z,7.93
2023-03-19T05:11:51.696Z,7.96
2023-03-19T05:14:18.309Z,7.88
2023-03-19T05:16:44.885Z,7.84
2023-03-19T05:19:11.405Z,7.91
2023-03-19T05:21:41.037Z,7.94
2023-03-19T05:24:07.870Z,7.92
2023-03-19T05:26:34.502Z,7.96
2023-03-19T05:29:01.348Z,7.98
2023-03-19T05:31:30.811Z,7.89
2023-03-19T05:33:57.398Z,7.86
2023-03-19T05:36:24.220Z,7.83
2023-03-19T05:38:50.832Z,7.90
2023-03-19T05:41:17.498Z,7.97
2023-03-19T05:43:44.092Z,7.89
2023-03-19T05:46:13.336Z,8.02
2023-03-19T05:48:39.975Z,7.99
2023-03-19T05:51:12.768Z,8.03
2023-03-19T05:53:39.490Z,8.09
2023-03-19T05:56:06.703Z,8.19
2023-03-19T05:58:33.241Z,8.19
2023-03-19T06:00:59.829Z,8.26
2023-03-19T06:03:27.262Z,8.24
2023-03-19T06:05:53.980Z,8.34
2023-03-19T06:08:21.568Z,8.54
2023-03-19T06:10:48.079Z,8.75
2023-03-19T06:13:14.749Z,8.92
2023-03-19T06:15:42.088Z,9.09
2023-03-19T06:18:08.702Z,9.21
2023-03-19T06:20:35.573Z,9.35
2023-03-19T06:23:02.448Z,9.48
2023-03-19T06:25:28.994Z,9.64
2023-03-19T06:27:55.616Z,9.64
2023-03-19T06:30:22.282Z,9.78
2023-03-19T06:32:48.874Z,9.79
2023-03-19T06:35:15.874Z,9.90
2023-03-19T06:37:42.619Z,10.01
2023-03-19T06:40:10.130Z,10.13
2023-03-19T06:42:36.775Z,10.26
2023-03-19T06:45:03.960Z,10.38
2023-03-19T06:47:30.556Z,10.48
2023-03-19T06:50:00.971Z,10.54
2023-03-19T06:52:27.500Z,10.59
2023-03-19T06:54:54.012Z,10.64
2023-03-19T06:57:20.838Z,10.60
2023-03-19T06:59:47.396Z,10.65
2023-03-19T07:02:14.433Z,10.78
2023-03-19T07:04:41.070Z,10.86
2023-03-19T07:07:07.648Z,10.90
2023-03-19T07:09:37.265Z,11.02
2023-03-19T07:12:04.673Z,11.10
2023-03-19T07:14:31.411Z,11.16
2023-03-19T07:16:58.074Z,11.26
2023-03-19T07:19:26.056Z,11.36
2023-03-19T07:21:52.570Z,11.47
2023-03-19T07:24:19.121Z,11.54
2023-03-19T07:26:46.525Z,11.61
2023-03-19T07:29:13.570Z,11.70
2023-03-19T07:31:40.969Z,11.76
2023-03-19T07:34:07.589Z,11.84
2023-03-19T07:36:36.870Z,11.88
2023-03-19T07:39:03.808Z,11.93
2023-03-19T07:41:30.425Z,12.01
2023-03-19T07:43:56.982Z,12.13
2023-03-19T07:46:24.083Z,12.19
2023-03-19T07:48:50.603Z,12.29
2023-03-19T07:51:17.159Z,12.35
2023-03-19T07:53:43.703Z,12.43
2023-03-19T07:56:10.467Z,12.46
2023-03-19T07:58:37.019Z,12.54
2023-03-19T08:01:03.661Z,12.59
2023-03-19T08:03:30.386Z,12.62
2023-03-19T08:05:59.731Z,12.60
2023-03-19T08:08:26.432Z,12.69
2023-03-19T08:10:56.744Z,12.70
2023-03-19T08:13:23.256Z,12.70
2023-03-19T08:15:51.289Z,12.77
2023-03-19T08:18:18.119Z,12.80
2023-03-19T08:20:45.946Z,12.83
2023-03-19T08:23:13.607Z,12.80
2023-03-19T08:25:40.453Z,12.86
2023-03-19T08:28:07.655Z,12.91
2023-03-19T08:30:34.482Z,12.89
2023-03-19T08:33:01.713Z,12.97
2023-03-19T08:35:28.459Z,12.86
2023-03-19T08:37:56.112Z,12.92
2023-03-19T08:40:23.474Z,12.96
2023-03-19T08:42:53.612Z,13.02
2023-03-19T08:45:23.698Z,12.99
2023-03-19T08:47:50.731Z,12.97
2023-03-19T08:50:17.789Z,12.94
2023-03-19T08:52:47.098Z,12.98
2023-03-19T08:55:13.801Z,12.97
2023-03-19T08:57:40.496Z,12.95
2023-03-19T09:00:07.950Z,12.97
2023-03-19T09:02:34.607Z,12.88
2023-03-19T09:05:01.192Z,12.96
2023-03-19T09:07:33.539Z,13.01
2023-03-19T09:10:00.101Z,13.04
2023-03-19T09:12:29.583Z,13.07
2023-03-19T09:14:56.274Z,13.10
2023-03-19T09:17:22.781Z,13.11
2023-03-19T09:19:49.296Z,13.18
2023-03-19T09:22:15.840Z,13.20
2023-03-19T09:24:42.414Z,13.20
2023-03-19T09:27:09.003Z,13.21
2023-03-19T09:29:35.645Z,13.18
2023-03-19T09:32:02.360Z,13.25
2023-03-19T09:34:28.911Z,13.30
2023-03-19T09:36:55.544Z,13.31
2023-03-19T09:39:22.210Z,13.32
2023-03-19T09:42:11.287Z,13.32
2023-03-19T09:44:39.890Z,13.34
2023-03-19T09:47:33.770Z,13.25
2023-03-19T09:50:06.889Z,13.23
2023-03-19T09:53:10.682Z,13.17
2023-03-19T09:55:43.293Z,13.20
2023-03-19T09:58:17.260Z,13.26
2023-03-19T10:00:49.420Z,13.33
2023-03-19T10:03:18.609Z,13.36
2023-03-19T10:06:10.498Z,13.41
2023-03-19T10:08:55.830Z,13.41
2023-03-19T10:11:29.633Z,13.47
2023-03-19T10:14:21.212Z,13.51
2023-03-19T10:16:54.150Z,13.55
2023-03-19T10:19:33.577Z,13.44
2023-03-19T10:22:07.693Z,13.47
2023-03-19T10:24:42.665Z,13.43
2023-03-19T10:27:15.590Z,13.52
2023-03-19T10:29:42.202Z,13.53
2023-03-19T10:32:22.275Z,13.59
2023-03-19T10:34:51.051Z,13.57
2023-03-19T10:37:23.852Z,13.60
2023-03-19T10:39:52.541Z,13.64
2023-03-19T10:42:44.101Z,13.76
2023-03-19T10:45:35.180Z,13.88
2023-03-19T10:48:04.198Z,13.93
2023-03-19T10:50:43.331Z,14.01
2023-03-19T10:53:12.881Z,14.05
2023-03-19T10:55:47.436Z,14.09
2023-03-19T10:58:19.708Z,14.17
2023-03-19T11:00:48.573Z,14.21
2023-03-19T11:03:51.799Z,14.26
2023-03-19T11:06:27.781Z,14.18
2023-03-19T11:09:02.430Z,14.26
2023-03-19T11:11:34.335Z,14.34
2023-03-19T11:14:41.150Z,14.40
2023-03-19T11:17:26.107Z,14.45
2023-03-19T11:19:59.743Z,14.49
2023-03-19T11:22:33.800Z,14.50
2023-03-19T11:25:14.768Z,14.50
2023-03-19T11:27:42.165Z,14.54
2023-03-19T11:30:19.638Z,14.58
2023-03-19T11:33:08.041Z,14.64
2023-03-19T11:35:42.263Z,14.67
2023-03-19T11:38:28.867Z,14.71
2023-03-19T11:41:16.601Z,14.77
2023-03-19T11:44:04.798Z,14.73
2023-03-19T11:46:37.718Z,14.80
2023-03-19T11:49:06.984Z,14.88
2023-03-19T11:51:39.272Z,14.93
2023-03-19T11:54:19.479Z,14.94
2023-03-19T11:57:11.472Z,14.91
2023-03-19T11:59:59.987Z,14.99
2023-03-19T12:02:39.445Z,15.01
2023-03-19T12:05:12.550Z,14.99
2023-03-19T12:07:51.314Z,15.09
2023-03-19T12:10:38.850Z,15.05
2023-03-19T12:13:16.151Z,15.15
2023-03-19T12:16:14.939Z,15.10
2023-03-19T12:19:11.765Z,15.15
2023-03-19T12:22:09.562Z,15.29
2023-03-19T12:25:09.977Z,15.38
2023-03-19T12:27:47.903Z,15.42
2023-03-19T12:30:21.658Z,15.48
2023-03-19T12:33:07.383Z,15.52
2023-03-19T12:35:36.307Z,15.53
2023-03-19T12:38:27.926Z,15.55
2023-03-19T12:41:11.187Z,15.58
2023-03-19T12:43:56.333Z,15.55
2023-03-19T12:46:33.322Z,15.60
2023-03-19T12:49:11.133Z,15.58
2023-03-19T12:51:42.549Z,15.67
2023-03-19T12:54:23.885Z,15.72
2023-03-19T12:57:29.240Z,15.77
2023-03-19T13:00:04.975Z,15.76
2023-03-19T13:02:54.357Z,15.78
2023-03-19T13:05:27.606Z,15.82
2023-03-19T13:07:59.981Z,15.87
2023-03-19T13:10:27.622Z,15.92
2023-03-19T13:12:54.620Z,15.90
2023-03-19T13:15:31.187Z,15.94
2023-03-19T13:18:12.920Z,16.01
2023-03-19T13:21:14.508Z,16.05
2023-03-19T13:23:45.578Z,16.08
2023-03-19T13:26:14.125Z,16.09
2023-03-19T13:29:09.404Z,16.10
2023-03-19T13:31:38.017Z,16.12
2023-03-19T13:34:18.288Z,16.17
2023-03-19T13:37:11.082Z,16.21
2023-03-19T13:39:38.473Z,16.17
2023-03-19T13:42:13.810Z,16.12
2023-03-19T13:44:52.243Z,16.15
2023-03-19T13:47:37.201Z,16.16
2023-03-19T13:50:16.119Z,16.22
2023-03-19T13:52:45.665Z,16.25
2023-03-19T13:55:24.962Z,16.24
2023-03-19T13:58:44.476Z,16.30
2023-03-19T14:01:26.257Z,16.41
2023-03-19T14:04:28.026Z,16.45
2023-03-19T14:07:33.243Z,16.46
2023-03-19T14:10:00.107Z,16.39
2023-03-19T14:12:36.390Z,16.39
2023-03-19T14:15:18.041Z,16.39
2023-03-19T14:17:56.570Z,16.32
2023-03-19T14:20:35.427Z,16.32
2023-03-19T14:23:08.991Z,16.30
2023-03-19T14:25:57.000Z,16.27
2023-03-19T14:28:49.636Z,16.28
2023-03-19T14:31:31.879Z,16.18
2023-03-19T14:34:03.390Z,16.23
2023-03-19T14:36:33.684Z,16.23
2023-03-19T14:39:03.524Z,16.21
2023-03-19T14:41:40.895Z,16.24
2023-03-19T14:44:58.139Z,16.21
2023-03-19T14:47:37.299Z,16.18
2023-03-19T14:50:27.342Z,16.15
2023-03-19T14:53:19.046Z,16.17
2023-03-19T14:55:51.138Z,16.15
2023-03-19T14:58:19.905Z,16.17
2023-03-19T15:00:49.895Z,16.16
2023-03-19T15:03:37.996Z,16.13
2023-03-19T15:06:07.897Z,16.10
2023-03-19T15:08:37.301Z,16.09
2023-03-19T15:11:18.940Z,16.02
2023-03-19T15:14:22.801Z,15.99
2023-03-19T15:17:08.088Z,15.94
2023-03-19T15:19:35.844Z,15.89
2023-03-19T15:22:33.825Z,15.82
2023-03-19T15:25:12.653Z,15.74
2023-03-19T15:27:40.866Z,15.67
2023-03-19T15:30:28.822Z,15.59
2023-03-19T15:33:10.377Z,15.64
2023-03-19T15:35:41.607Z,15.54
2023-03-19T15:38:11.288Z,15.56
2023-03-19T15:40:38.885Z,15.47
2023-03-19T15:43:06.130Z,15.43
2023-03-19T15:45:34.112Z,15.40
2023-03-19T15:48:18.633Z,15.34
2023-03-19T15:50:47.912Z,15.26
2023-03-19T15:53:24.522Z,15.24
2023-03-19T15:55:53.123Z,15.15
2023-03-19T15:58:26.877Z,15.05
2023-03-19T16:00:54.980Z,14.99
2023-03-19T16:03:28.867Z,14.96
2023-03-19T16:06:12.628Z,14.86
2023-03-19T16:08:50.188Z,14.80
2023-03-19T16:11:31.176Z,14.77
2023-03-19T16:14:19.174Z,14.75
2023-03-19T16:16:47.285Z,14.66
2023-03-19T16:19:30.099Z,14.61
2023-03-19T16:21:57.464Z,14.57
2023-03-19T16:24:37.687Z,14.56
2023-03-19T16:27:09.805Z,14.50
2023-03-19T16:29:47.046Z,14.41
2023-03-19T16:32:25.481Z,14.39
2023-03-19T16:34:57.455Z,14.35
2023-03-19T16:37:24.225Z,14.30
2023-03-19T16:39:56.571Z,14.25
2023-03-19T16:42:28.212Z,14.17
2023-03-19T16:44:55.332Z,14.13
2023-03-19T16:47:22.956Z,14.08
2023-03-19T16:49:49.544Z,14.08
2023-03-19T16:52:22.753Z,14.04
2023-03-19T16:54:50.357Z,13.99
2023-03-19T16:57:20.106Z,13.94
2023-03-19T16:59:47.047Z,13.87
2023-03-19T17:02:16.699Z,13.84
2023-03-19T17:04:44.266Z,13.79
2023-03-19T17:07:11.769Z,13.72
2023-03-19T17:09:39.093Z,13.67
2023-03-19T17:12:13.560Z,13.63
2023-03-19T17:14:40.322Z,13.58
2023-03-19T17:17:17.960Z,13.56
2023-03-19T17:19:46.548Z,13.54
2023-03-19T17:22:16.155Z,13.50
2023-03-19T17:24:43.080Z,13.48
2023-03-19T17:27:10.284Z,13.41
2023-03-19T17:29:36.978Z,13.39
2023-03-19T17:32:06.840Z,13.36
2023-03-19T17:34:33.667Z,13.34
2023-03-19T17:37:02.869Z,13.32
2023-03-19T17:39:30.160Z,13.27
2023-03-19T17:41:57.090Z,13.24
2023-03-19T17:44:26.055Z,13.22
2023-03-19T17:46:54.753Z,13.16
2023-03-19T17:49:29.096Z,13.14
2023-03-19T17:51:56.452Z,13.07
2023-03-19T17:54:23.093Z,13.08
2023-03-19T17:56:49.668Z,13.06
2023-03-19T17:59:16.194Z,13.06
2023-03-19T18:01:43.653Z,13.05
2023-03-19T18:04:16.403Z,13.02
2023-03-19T18:06:47.994Z,12.98
2023-03-19T18:09:23.712Z,12.97
2023-03-19T18:11:50.638Z,12.90
2023-03-19T18:14:17.458Z,12.91
2023-03-19T18:16:46.751Z,12.92
2023-03-19T18:19:21.705Z,12.91
2023-03-19T18:21:48.315Z,12.84
2023-03-19T18:24:15.228Z,12.84
2023-03-19T18:26:41.751Z,12.83
2023-03-19T18:29:09.114Z,12.80
2023-03-19T18:31:36.152Z,12.79
2023-03-19T18:34:08.629Z,12.80
2023-03-19T18:36:35.412Z,12.74
2023-03-19T18:39:02.304Z,12.75
2023-03-19T18:41:29.573Z,12.79
2023-03-19T18:43:58.576Z,12.82
2023-03-19T18:46:32.882Z,12.79
2023-03-19T18:49:02.138Z,12.78
2023-03-19T18:51:31.126Z,12.78
2023-03-19T18:53:57.856Z,12.79
2023-03-19T18:56:28.415Z,12.76
2023-03-19T18:58:57.657Z,12.83
2023-03-19T19:01:25.024Z,12.72
2023-03-19T19:03:52.682Z,12.73
2023-03-19T19:06:45.943Z,12.69
2023-03-19T19:09:13.340Z,12.66
2023-03-19T19:11:41.819Z,12.62
2023-03-19T19:14:16.231Z,12.58
2023-03-19T19:16:42.895Z,12.61
2023-03-19T19:19:29.798Z,12.57
2023-03-19T19:21:56.536Z,12.56
2023-03-19T19:24:25.799Z,12.56
2023-03-19T19:26:54.189Z,12.51
2023-03-19T19:29:30.607Z,12.55
2023-03-19T19:31:57.231Z,12.52
2023-03-19T19:34:26.531Z,12.50
2023-03-19T19:36:55.518Z,12.49
2023-03-19T19:39:22.145Z,12.47
2023-03-19T19:41:48.702Z,12.41
2023-03-19T19:44:19.773Z,12.39
2023-03-19T19:46:46.412Z,12.38
2023-03-19T19:49:14.473Z,12.39
2023-03-19T19:51:41.277Z,12.35
2023-03-19T19:54:07.907Z,12.32
2023-03-19T19:56:34.478Z,12.35
2023-03-19T19:59:08.454Z,12.35
2023-03-19T20:01:35.555Z,12.29
2023-03-19T20:04:04.248Z,12.27
2023-03-19T20:06:30.975Z,12.21
2023-03-19T20:08:57.452Z,12.20
2023-03-19T20:11:26.539Z,12.25
2023-03-19T20:13:55.604Z,12.30
2023-03-19T20:16:25.523Z,12.25
2023-03-19T20:18:53.886Z,12.19
2023-03-19T20:21:21.743Z,12.20
2023-03-19T20:23:51.159Z,12.24
2023-03-19T20:26:21.088Z,12.22
2023-03-19T20:28:48.257Z,12.25
2023-03-19T20:31:24.766Z,12.33
2023-03-19T20:33:51.543Z,12.25
2023-03-19T20:36:19.588Z,12.24
2023-03-19T20:38:46.218Z,12.26
2023-03-19T20:41:25.931Z,12.22
2023-03-19T20:43:53.687Z,12.22
2023-03-19T20:46:21.840Z,12.21
2023-03-19T20:48:49.034Z,12.17
2023-03-19T20:51:21.664Z,12.13
2023-03-19T20:53:49.935Z,12.11
2023-03-19T20:56:22.602Z,12.14
2023-03-19T20:58:49.509Z,12.17
2023-03-19T21:01:17.879Z,12.10
2023-03-19T21:03:44.595Z,12.08
2023-03-19T21:06:23.025Z,12.04
2023-03-19T21:08:58.785Z,11.92
2023-03-19T21:11:39.346Z,11.93
2023-03-19T21:14:06.758Z,11.88
2023-03-19T21:16:34.032Z,11.87
2023-03-19T21:19:00.851Z,11.86
2023-03-19T21:21:34.418Z,11.80
2023-03-19T21:24:12.414Z,11.76
2023-03-19T21:26:40.362Z,11.74
2023-03-19T21:29:14.277Z,11.70
2023-03-19T21:31:40.819Z,11.67
2023-03-19T21:34:07.351Z,11.63
2023-03-19T21:36:33.831Z,11.60
2023-03-19T21:39:01.370Z,11.53
2023-03-19T21:41:33.409Z,11.49
2023-03-19T21:44:03.885Z,11.47
2023-03-19T21:46:32.327Z,11.40
2023-03-19T21:48:58.999Z,11.32
2023-03-19T21:51:29.619Z,11.27
2023-03-19T21:53:56.505Z,11.22
2023-03-19T21:56:32.719Z,11.21
2023-03-19T21:59:09.717Z,11.13
2023-03-19T22:01:36.268Z,11.07
2023-03-19T22:04:03.015Z,11.04
2023-03-19T22:06:30.069Z,10.99
2023-03-19T22:08:56.746Z,10.93
2023-03-19T22:11:28.396Z,10.89
2023-03-19T22:14:04.177Z,10.86
2023-03-19T22:16:31.745Z,10.82
2023-03-19T22:18:58.342Z,10.78
2023-03-19T22:21:25.075Z,10.72
2023-03-19T22:23:52.019Z,10.71
2023-03-19T22:26:29.590Z,10.65
2023-03-19T22:28:58.613Z,10.64
2023-03-19T22:31:25.626Z,10.56
2023-03-19T22:33:52.753Z,10.55
2023-03-19T22:36:19.505Z,10.54
2023-03-19T22:38:47.081Z,10.53
2023-03-19T22:41:37.029Z,10.51
2023-03-19T22:44:07.969Z,10.47
2023-03-19T22:46:35.415Z,10.45
2023-03-19T22:49:02.577Z,10.41
2023-03-19T22:51:29.168Z,10.40
2023-03-19T22:53:55.887Z,10.37
2023-03-19T22:56:22.499Z,10.36
2023-03-19T22:58:49.996Z,10.32
2023-03-19T23:01:41.693Z,10.28
2023-03-19T23:04:31.883Z,10.23
2023-03-19T23:07:00.494Z,10.18
2023-03-19T23:09:32.567Z,10.16
2023-03-19T23:12:00.200Z,10.13
2023-03-19T23:14:30.927Z,10.08
2023-03-19T23:17:01.589Z,10.04
2023-03-19T23:19:31.499Z,10.02
2023-03-19T23:21:58.900Z,9.95
2023-03-19T23:24:26.135Z,9.91
2023-03-19T23:26:54.820Z,9.84
2023-03-19T23:29:24.551Z,9.75
2023-03-19T23:31:51.408Z,9.64
2023-03-19T23:34:18.143Z,9.64
2023-03-19T23:36:45.167Z,9.65
2023-03-19T23:39:11.729Z,9.67
2023-03-19T23:41:48.309Z,9.65
2023-03-19T23:44:17.720Z,9.58
2023-03-19T23:46:48.671Z,9.55
2023-03-19T23:49:28.812Z,9.48
2023-03-19T23:51:56.656Z,9.47
2023-03-19T23:54:33.898Z,9.45
2023-03-19T23:57:04.309Z,9.44
2023-03-19T23:59:35.781Z,9.37
